sensor_id;sensor_type;location;lat;lon;timestamp;pressure;altitude;pressure_sealevel;temperature;humidity
69707;BME280;56975;55.726;37.566;2024-03-06T00:00:00;100820.0;;;-4.8;67.1
69707;BME280;56975;55.726;37.566;2024-03-06T00:05:00;100820.0;;;-4.9;67.7
69707;BME280;56975;55.726;37.566;2024-03-06T00:10:08;100810.0;;;-5.0;67.5
69707;BME280;56975;55.726;37.566;2024-03-06T00:15:00;100820.0;;;-5.2;67.8
69707;BME280;56975;55.726;37.566;2024-03-06T00:20:00;100830.0;;;-5.2;67.6
69707;BME280;56975;55.726;37.566;2024-03-06T00:25:07;100830.0;;;-5.2;67.1
69707;BME280;56975;55.726;37.566;2024-03-06T00:30:00;100820.0;;;-5.2;67.1
69707;BME280;56975;55.726;37.566;2024-03-06T00:35:00;100820.0;;;-5.3;67.6
69707;BME280;56975;55.726;37.566;2024-03-06T00:40:08;100820.0;;;-5.4;67.7
69707;BME280;56975;55.726;37.566;2024-03-06T00:45:00;100830.0;;;-5.5;67.9
69707;BME280;56975;55.726;37.566;2024-03-06T00:50:00;100830.0;;;-5.6;68.0
69707;BME280;56975;55.726;37.566;2024-03-06T00:55:08;100830.0;;;-5.6;67.9
69707;BME280;56975;55.726;37.566;2024-03-06T01:00:00;100820.0;;;-5.4;66.7
69707;BME280;56975;55.726;37.566;2024-03-06T01:05:01;100820.0;;;-5.6;66.2
69707;BME280;56975;55.726;37.566;2024-03-06T01:10:08;100810.0;;;-5.3;65.1
69707;BME280;56975;55.726;37.566;2024-03-06T01:15:00;100820.0;;;-5.7;65.0
69707;BME280;56975;55.726;37.566;2024-03-06T01:20:00;100820.0;;;-5.6;64.4
69707;BME280;56975;55.726;37.566;2024-03-06T01:30:00;100820.0;;;-5.7;64.4
69707;BME280;56975;55.726;37.566;2024-03-06T01:35:00;100820.0;;;-5.7;64.3
69707;BME280;56975;55.726;37.566;2024-03-06T01:40:08;100820.0;;;-5.7;64.4
69707;BME280;56975;55.726;37.566;2024-03-06T01:45:01;100820.0;;;-5.7;64.5
69707;BME280;56975;55.726;37.566;2024-03-06T01:50:01;100820.0;;;-5.8;63.9
69707;BME280;56975;55.726;37.566;2024-03-06T01:55:08;100840.0;;;-5.8;63.3
69707;BME280;56975;55.726;37.566;2024-03-06T02:00:00;100830.0;;;-5.8;63.1
69707;BME280;56975;55.726;37.566;2024-03-06T02:05:00;100840.0;;;-6.0;62.5
69707;BME280;56975;55.726;37.566;2024-03-06T02:10:07;100830.0;;;-6.0;62.8
69707;BME280;56975;55.726;37.566;2024-03-06T02:15:00;100830.0;;;-6.0;62.8
69707;BME280;56975;55.726;37.566;2024-03-06T02:20:01;100830.0;;;-6.0;62.6
69707;BME280;56975;55.726;37.566;2024-03-06T02:25:07;100840.0;;;-6.0;62.8
69707;BME280;56975;55.726;37.566;2024-03-06T02:30:00;100830.0;;;-6.1;62.9
69707;BME280;56975;55.726;37.566;2024-03-06T02:35:01;100830.0;;;-6.2;63.3
69707;BME280;56975;55.726;37.566;2024-03-06T02:45:00;100840.0;;;-6.1;63.0
69707;BME280;56975;55.726;37.566;2024-03-06T02:50:00;100850.0;;;-6.1;63.4
69707;BME280;56975;55.726;37.566;2024-03-06T02:55:07;100850.0;;;-6.1;63.3
69707;BME280;56975;55.726;37.566;2024-03-06T03:00:00;100860.0;;;-6.2;63.5
69707;BME280;56975;55.726;37.566;2024-03-06T03:05:00;100860.0;;;-6.2;63.8
69707;BME280;56975;55.726;37.566;2024-03-06T03:10:08;100870.0;;;-6.2;63.4
69707;BME280;56975;55.726;37.566;2024-03-06T03:15:00;100880.0;;;-6.2;63.5
69707;BME280;56975;55.726;37.566;2024-03-06T03:20:00;100890.0;;;-6.3;63.6
69707;BME280;56975;55.726;37.566;2024-03-06T03:25:08;100890.0;;;-6.3;63.5
69707;BME280;56975;55.726;37.566;2024-03-06T03:30:00;100900.0;;;-6.3;63.5
69707;BME280;56975;55.726;37.566;2024-03-06T03:35:00;100900.0;;;-6.3;63.7
69707;BME280;56975;55.726;37.566;2024-03-06T03:40:08;100900.0;;;-6.3;63.7
69707;BME280;56975;55.726;37.566;2024-03-06T03:45:00;100900.0;;;-6.3;63.8
69707;BME280;56975;55.726;37.566;2024-03-06T03:50:00;100900.0;;;-6.4;64.8
69707;BME280;56975;55.726;37.566;2024-03-06T03:55:08;100900.0;;;-6.5;65.1
69707;BME280;56975;55.726;37.566;2024-03-06T04:00:00;100890.0;;;-6.5;64.8
69707;BME280;56975;55.726;37.566;2024-03-06T04:05:00;100900.0;;;-6.5;64.8
69707;BME280;56975;55.726;37.566;2024-03-06T04:10:08;100890.0;;;-6.5;64.4
69707;BME280;56975;55.726;37.566;2024-03-06T04:15:00;100890.0;;;-6.5;64.0
69707;BME280;56975;55.726;37.566;2024-03-06T04:20:00;100880.0;;;-6.4;63.6
69707;BME280;56975;55.726;37.566;2024-03-06T04:30:00;100890.0;;;-6.5;63.1
69707;BME280;56975;55.726;37.566;2024-03-06T04:35:00;100890.0;;;-6.4;62.6
69707;BME280;56975;55.726;37.566;2024-03-06T04:40:08;100890.0;;;-6.4;62.7
69707;BME280;56975;55.726;37.566;2024-03-06T04:45:00;100900.0;;;-6.4;62.5
69707;BME280;56975;55.726;37.566;2024-03-06T04:50:00;100890.0;;;-6.3;62.2
69707;BME280;56975;55.726;37.566;2024-03-06T04:55:08;100890.0;;;-6.2;60.9
69707;BME280;56975;55.726;37.566;2024-03-06T05:00:00;100890.0;;;-6.1;60.8
69707;BME280;56975;55.726;37.566;2024-03-06T05:05:00;100890.0;;;-5.8;60.7
69707;BME280;56975;55.726;37.566;2024-03-06T05:10:07;100890.0;;;-5.8;60.2
69707;BME280;56975;55.726;37.566;2024-03-06T05:15:00;100890.0;;;-5.6;59.9
69707;BME280;56975;55.726;37.566;2024-03-06T05:20:01;100890.0;;;-5.6;58.9
69707;BME280;56975;55.726;37.566;2024-03-06T05:25:07;100890.0;;;-5.5;58.4
69707;BME280;56975;55.726;37.566;2024-03-06T05:30:00;100890.0;;;-5.2;58.0
69707;BME280;56975;55.726;37.566;2024-03-06T05:35:00;100900.0;;;-5.5;57.5
69707;BME280;56975;55.726;37.566;2024-03-06T05:40:08;100900.0;;;-5.3;57.5
69707;BME280;56975;55.726;37.566;2024-03-06T05:45:00;100900.0;;;-5.1;57.2
69707;BME280;56975;55.726;37.566;2024-03-06T05:50:00;100910.0;;;-4.9;55.8
69707;BME280;56975;55.726;37.566;2024-03-06T05:55:07;100910.0;;;-4.9;55.5
69707;BME280;56975;55.726;37.566;2024-03-06T06:00:01;100910.0;;;-4.4;55.0
69707;BME280;56975;55.726;37.566;2024-03-06T06:05:00;100900.0;;;-4.4;53.3
69707;BME280;56975;55.726;37.566;2024-03-06T06:10:07;100900.0;;;-4.0;52.9
69707;BME280;56975;55.726;37.566;2024-03-06T06:15:00;100910.0;;;-3.5;51.7
69707;BME280;56975;55.726;37.566;2024-03-06T06:20:00;100910.0;;;-3.3;50.6
69707;BME280;56975;55.726;37.566;2024-03-06T06:25:07;100910.0;;;-2.6;49.3
69707;BME280;56975;55.726;37.566;2024-03-06T06:30:00;100910.0;;;-3.3;49.6
69707;BME280;56975;55.726;37.566;2024-03-06T06:35:00;100920.0;;;-3.8;51.1
69707;BME280;56975;55.726;37.566;2024-03-06T06:40:08;100920.0;;;-3.2;49.1
69707;BME280;56975;55.726;37.566;2024-03-06T06:45:00;100920.0;;;-3.7;50.1
69707;BME280;56975;55.726;37.566;2024-03-06T06:50:00;100920.0;;;-3.1;49.7
69707;BME280;56975;55.726;37.566;2024-03-06T07:00:01;100930.0;;;-3.0;49.2
69707;BME280;56975;55.726;37.566;2024-03-06T07:05:00;100930.0;;;-2.0;46.5
69707;BME280;56975;55.726;37.566;2024-03-06T07:10:08;100930.0;;;-2.4;46.1
69707;BME280;56975;55.726;37.566;2024-03-06T07:15:00;100930.0;;;-2.9;47.3
69707;BME280;56975;55.726;37.566;2024-03-06T07:20:00;100930.0;;;-3.0;47.1
69707;BME280;56975;55.726;37.566;2024-03-06T07:25:07;100930.0;;;-1.8;46.2
69707;BME280;56975;55.726;37.566;2024-03-06T07:30:01;100930.0;;;-1.8;44.4
69707;BME280;56975;55.726;37.566;2024-03-06T07:35:00;100930.0;;;-2.3;45.0
69707;BME280;56975;55.726;37.566;2024-03-06T07:40:08;100940.0;;;-2.1;44.9
69707;BME280;56975;55.726;37.566;2024-03-06T07:45:00;100940.0;;;-1.9;44.4
69707;BME280;56975;55.726;37.566;2024-03-06T07:50:00;100940.0;;;-2.1;44.3
69707;BME280;56975;55.726;37.566;2024-03-06T07:55:07;100950.0;;;-1.5;42.1
69707;BME280;56975;55.726;37.566;2024-03-06T08:00:00;100950.0;;;-0.8;41.8
69707;BME280;56975;55.726;37.566;2024-03-06T08:05:00;100950.0;;;-1.5;42.5
69707;BME280;56975;55.726;37.566;2024-03-06T08:10:08;100950.0;;;-0.8;43.0
69707;BME280;56975;55.726;37.566;2024-03-06T08:15:00;100950.0;;;-1.0;40.5
69707;BME280;56975;55.726;37.566;2024-03-06T08:30:08;100950.0;;;-1.3;41.4
69707;BME280;56975;55.726;37.566;2024-03-06T08:35:00;100950.0;;;-1.0;40.6
69707;BME280;56975;55.726;37.566;2024-03-06T08:40:01;100950.0;;;-0.4;39.0
69707;BME280;56975;55.726;37.566;2024-03-06T09:00:08;100940.0;;;-0.4;38.5
69707;BME280;56975;55.726;37.566;2024-03-06T09:05:00;100940.0;;;-0.6;38.2
69707;BME280;56975;55.726;37.566;2024-03-06T09:10:00;100930.0;;;-0.0;37.4
69707;BME280;56975;55.726;37.566;2024-03-06T09:20:08;100940.0;;;-0.3;37.8
69707;BME280;56975;55.726;37.566;2024-03-06T09:25:00;100930.0;;;0.0;37.7
69707;BME280;56975;55.726;37.566;2024-03-06T09:30:00;100930.0;;;0.1;36.9
69707;BME280;56975;55.726;37.566;2024-03-06T09:40:08;100920.0;;;0.7;36.0
69707;BME280;56975;55.726;37.566;2024-03-06T09:45:00;100920.0;;;1.0;35.7
69707;BME280;56975;55.726;37.566;2024-03-06T09:50:00;100920.0;;;0.6;35.4
69707;BME280;56975;55.726;37.566;2024-03-06T09:55:07;100910.0;;;0.7;36.3
69707;BME280;56975;55.726;37.566;2024-03-06T10:30:08;100900.0;;;-0.2;36.4
69707;BME280;56975;55.726;37.566;2024-03-06T10:40:02;100900.0;;;1.2;34.3
69707;BME280;56975;55.726;37.566;2024-03-06T10:45:08;100890.0;;;0.3;35.9
69707;BME280;56975;55.726;37.566;2024-03-06T10:50:01;100890.0;;;0.8;35.8
69707;BME280;56975;55.726;37.566;2024-03-06T10:55:00;100890.0;;;1.0;34.5
69707;BME280;56975;55.726;37.566;2024-03-06T11:00:08;100880.0;;;3.1;31.9
69707;BME280;56975;55.726;37.566;2024-03-06T11:05:00;100880.0;;;2.3;32.7
69707;BME280;56975;55.726;37.566;2024-03-06T11:10:01;100880.0;;;2.2;33.2
69707;BME280;56975;55.726;37.566;2024-03-06T11:25:00;100860.0;;;1.9;32.5
69707;BME280;56975;55.726;37.566;2024-03-06T11:30:08;100860.0;;;2.7;31.2
69707;BME280;56975;55.726;37.566;2024-03-06T11:35:00;100850.0;;;3.0;31.6
69707;BME280;56975;55.726;37.566;2024-03-06T11:40:00;100850.0;;;4.2;30.3
69707;BME280;56975;55.726;37.566;2024-03-06T11:50:00;100840.0;;;5.5;29.3
69707;BME280;56975;55.726;37.566;2024-03-06T12:00:08;100840.0;;;5.6;27.3
69707;BME280;56975;55.726;37.566;2024-03-06T12:05:02;100830.0;;;4.4;27.2
69707;BME280;56975;55.726;37.566;2024-03-06T12:10:00;100820.0;;;6.2;27.6
69707;BME280;56975;55.726;37.566;2024-03-06T12:15:09;100810.0;;;5.7;25.6
69707;BME280;56975;55.726;37.566;2024-03-06T12:20:00;100810.0;;;6.9;25.9
69707;BME280;56975;55.726;37.566;2024-03-06T12:25:00;100800.0;;;7.8;23.0
69707;BME280;56975;55.726;37.566;2024-03-06T12:35:00;100800.0;;;10.1;21.4
69707;BME280;56975;55.726;37.566;2024-03-06T12:40:00;100800.0;;;11.2;21.1
69707;BME280;56975;55.726;37.566;2024-03-06T12:50:08;100800.0;;;7.4;22.8
69707;BME280;56975;55.726;37.566;2024-03-06T12:55:00;100790.0;;;8.5;24.0
69707;BME280;56975;55.726;37.566;2024-03-06T13:00:00;100780.0;;;6.5;24.8
69707;BME280;56975;55.726;37.566;2024-03-06T13:05:07;100780.0;;;9.8;22.0
69707;BME280;56975;55.726;37.566;2024-03-06T13:10:00;100780.0;;;7.5;23.5
69707;BME280;56975;55.726;37.566;2024-03-06T13:15:00;100790.0;;;6.9;25.1
69707;BME280;56975;55.726;37.566;2024-03-06T13:20:08;100770.0;;;4.4;27.6
69707;BME280;56975;55.726;37.566;2024-03-06T13:25:00;100770.0;;;4.0;28.0
69707;BME280;56975;55.726;37.566;2024-03-06T13:35:08;100770.0;;;5.1;25.7
69707;BME280;56975;55.726;37.566;2024-03-06T13:40:00;100760.0;;;3.0;28.1
69707;BME280;56975;55.726;37.566;2024-03-06T13:45:00;100760.0;;;2.7;28.3
69707;BME280;56975;55.726;37.566;2024-03-06T14:00:08;100760.0;;;5.6;24.9
69707;BME280;56975;55.726;37.566;2024-03-06T14:05:00;100760.0;;;6.6;23.9
69707;BME280;56975;55.726;37.566;2024-03-06T14:10:00;100760.0;;;5.2;24.2
69707;BME280;56975;55.726;37.566;2024-03-06T14:15:08;100750.0;;;5.6;24.3
69707;BME280;56975;55.726;37.566;2024-03-06T14:20:00;100750.0;;;5.9;24.2
69707;BME280;56975;55.726;37.566;2024-03-06T14:25:00;100740.0;;;5.4;24.7
69707;BME280;56975;55.726;37.566;2024-03-06T14:30:07;100750.0;;;5.1;24.3
69707;BME280;56975;55.726;37.566;2024-03-06T14:35:00;100740.0;;;2.2;27.2
69707;BME280;56975;55.726;37.566;2024-03-06T14:40:00;100740.0;;;2.0;26.8
69707;BME280;56975;55.726;37.566;2024-03-06T14:45:08;100740.0;;;1.3;27.8
69707;BME280;56975;55.726;37.566;2024-03-06T14:50:00;100740.0;;;1.4;28.3
69707;BME280;56975;55.726;37.566;2024-03-06T14:55:00;100750.0;;;0.7;28.7
69707;BME280;56975;55.726;37.566;2024-03-06T15:10:00;100740.0;;;0.1;29.6
69707;BME280;56975;55.726;37.566;2024-03-06T15:15:08;100740.0;;;-0.2;30.7
69707;BME280;56975;55.726;37.566;2024-03-06T15:20:00;100740.0;;;-0.2;30.6
69707;BME280;56975;55.726;37.566;2024-03-06T15:25:00;100730.0;;;-0.7;31.7
69707;BME280;56975;55.726;37.566;2024-03-06T15:30:08;100730.0;;;-0.9;31.6
69707;BME280;56975;55.726;37.566;2024-03-06T15:35:00;100730.0;;;-1.1;32.4
69707;BME280;56975;55.726;37.566;2024-03-06T15:40:00;100730.0;;;-1.1;32.8
69707;BME280;56975;55.726;37.566;2024-03-06T15:45:10;100740.0;;;-1.1;32.7
69707;BME280;56975;55.726;37.566;2024-03-06T15:50:00;100730.0;;;-1.3;32.7
69707;BME280;56975;55.726;37.566;2024-03-06T15:55:00;100740.0;;;-1.3;33.1
69707;BME280;56975;55.726;37.566;2024-03-06T16:10:00;100740.0;;;-1.5;33.3
69707;BME280;56975;55.726;37.566;2024-03-06T16:15:00;100740.0;;;-1.5;32.3
69707;BME280;56975;55.726;37.566;2024-03-06T16:20:08;100740.0;;;-1.5;32.4
69707;BME280;56975;55.726;37.566;2024-03-06T16:25:00;100740.0;;;-1.5;32.6
69707;BME280;56975;55.726;37.566;2024-03-06T16:30:00;100730.0;;;-1.5;33.8
69707;BME280;56975;55.726;37.566;2024-03-06T16:35:07;100730.0;;;-1.8;33.6
69707;BME280;56975;55.726;37.566;2024-03-06T16:40:00;100730.0;;;-1.8;33.8
69707;BME280;56975;55.726;37.566;2024-03-06T16:45:00;100720.0;;;-1.9;33.9
69707;BME280;56975;55.726;37.566;2024-03-06T16:50:08;100720.0;;;-2.0;34.1
69707;BME280;56975;55.726;37.566;2024-03-06T16:55:00;100720.0;;;-2.0;34.5
69707;BME280;56975;55.726;37.566;2024-03-06T17:00:00;100720.0;;;-2.1;35.3
69707;BME280;56975;55.726;37.566;2024-03-06T17:10:08;100710.0;;;-2.1;35.5
69707;BME280;56975;55.726;37.566;2024-03-06T17:15:00;100710.0;;;-2.1;35.7
69707;BME280;56975;55.726;37.566;2024-03-06T17:20:00;100710.0;;;-2.2;35.9
69707;BME280;56975;55.726;37.566;2024-03-06T17:30:07;100720.0;;;-2.2;36.5
69707;BME280;56975;55.726;37.566;2024-03-06T17:40:00;100710.0;;;-2.2;36.5
69707;BME280;56975;55.726;37.566;2024-03-06T17:50:00;100710.0;;;-2.3;36.5
69707;BME280;56975;55.726;37.566;2024-03-06T17:55:00;100710.0;;;-2.3;38.1
69707;BME280;56975;55.726;37.566;2024-03-06T18:10:07;100710.0;;;-2.3;38.3
69707;BME280;56975;55.726;37.566;2024-03-06T18:15:00;100720.0;;;-2.3;38.6
69707;BME280;56975;55.726;37.566;2024-03-06T18:20:00;100710.0;;;-2.4;38.6
69707;BME280;56975;55.726;37.566;2024-03-06T18:25:08;100720.0;;;-2.3;38.0
69707;BME280;56975;55.726;37.566;2024-03-06T18:30:00;100720.0;;;-2.5;38.2
69707;BME280;56975;55.726;37.566;2024-03-06T18:35:00;100720.0;;;-2.5;38.0
69707;BME280;56975;55.726;37.566;2024-03-06T18:40:08;100710.0;;;-2.6;37.9
69707;BME280;56975;55.726;37.566;2024-03-06T18:45:00;100720.0;;;-2.6;37.8
69707;BME280;56975;55.726;37.566;2024-03-06T18:50:00;100710.0;;;-2.6;38.0
69707;BME280;56975;55.726;37.566;2024-03-06T19:10:00;100710.0;;;-2.7;37.9
69707;BME280;56975;55.726;37.566;2024-03-06T19:15:08;100710.0;;;-2.8;38.2
69707;BME280;56975;55.726;37.566;2024-03-06T19:20:00;100700.0;;;-2.8;38.8
69707;BME280;56975;55.726;37.566;2024-03-06T19:25:00;100700.0;;;-2.8;38.1
69707;BME280;56975;55.726;37.566;2024-03-06T19:30:08;100700.0;;;-2.7;37.7
69707;BME280;56975;55.726;37.566;2024-03-06T19:35:00;100690.0;;;-2.7;37.8
69707;BME280;56975;55.726;37.566;2024-03-06T19:40:00;100700.0;;;-2.8;38.1
69707;BME280;56975;55.726;37.566;2024-03-06T19:50:00;100700.0;;;-2.8;38.9
69707;BME280;56975;55.726;37.566;2024-03-06T19:55:00;100700.0;;;-2.9;39.1
69707;BME280;56975;55.726;37.566;2024-03-06T20:00:08;100690.0;;;-3.0;39.5
69707;BME280;56975;55.726;37.566;2024-03-06T20:05:00;100690.0;;;-3.0;39.6
69707;BME280;56975;55.726;37.566;2024-03-06T20:10:00;100690.0;;;-3.0;39.6
69707;BME280;56975;55.726;37.566;2024-03-06T20:15:08;100690.0;;;-3.0;40.1
69707;BME280;56975;55.726;37.566;2024-03-06T20:20:00;100690.0;;;-3.0;39.8
69707;BME280;56975;55.726;37.566;2024-03-06T20:25:00;100690.0;;;-3.2;39.5
69707;BME280;56975;55.726;37.566;2024-03-06T20:35:07;100690.0;;;-3.3;40.2
69707;BME280;56975;55.726;37.566;2024-03-06T20:40:00;100680.0;;;-3.4;40.7
69707;BME280;56975;55.726;37.566;2024-03-06T20:45:00;100680.0;;;-3.5;41.0
69707;BME280;56975;55.726;37.566;2024-03-06T20:50:08;100680.0;;;-3.5;40.8
69707;BME280;56975;55.726;37.566;2024-03-06T20:55:00;100670.0;;;-3.5;40.4
69707;BME280;56975;55.726;37.566;2024-03-06T21:00:00;100680.0;;;-3.5;40.5
69707;BME280;56975;55.726;37.566;2024-03-06T21:10:00;100670.0;;;-3.5;40.8
69707;BME280;56975;55.726;37.566;2024-03-06T21:15:00;100660.0;;;-3.4;40.8
69707;BME280;56975;55.726;37.566;2024-03-06T21:20:08;100670.0;;;-3.3;40.2
69707;BME280;56975;55.726;37.566;2024-03-06T21:25:00;100670.0;;;-3.4;41.1
69707;BME280;56975;55.726;37.566;2024-03-06T21:30:00;100670.0;;;-3.5;41.7
69707;BME280;56975;55.726;37.566;2024-03-06T21:35:07;100660.0;;;-3.5;42.3
69707;BME280;56975;55.726;37.566;2024-03-06T21:40:02;100660.0;;;-3.7;42.6
69707;BME280;56975;55.726;37.566;2024-03-06T21:45:00;100660.0;;;-3.7;42.8
69707;BME280;56975;55.726;37.566;2024-03-06T21:50:08;100650.0;;;-3.8;43.0
69707;BME280;56975;55.726;37.566;2024-03-06T21:55:00;100660.0;;;-3.9;43.4
69707;BME280;56975;55.726;37.566;2024-03-06T22:00:00;100660.0;;;-3.9;43.6
69707;BME280;56975;55.726;37.566;2024-03-06T22:05:08;100650.0;;;-3.9;42.7
69707;BME280;56975;55.726;37.566;2024-03-06T22:10:00;100650.0;;;-4.0;43.3
69707;BME280;56975;55.726;37.566;2024-03-06T22:15:00;100650.0;;;-4.1;43.2
69707;BME280;56975;55.726;37.566;2024-03-06T22:20:07;100650.0;;;-4.1;43.6
69707;BME280;56975;55.726;37.566;2024-03-06T22:25:00;100650.0;;;-4.2;43.6
69707;BME280;56975;55.726;37.566;2024-03-06T22:30:00;100650.0;;;-4.2;44.1
69707;BME280;56975;55.726;37.566;2024-03-06T22:35:08;100650.0;;;-4.2;44.5
69707;BME280;56975;55.726;37.566;2024-03-06T22:40:00;100650.0;;;-4.3;44.8
69707;BME280;56975;55.726;37.566;2024-03-06T22:45:01;100650.0;;;-4.3;45.0
69707;BME280;56975;55.726;37.566;2024-03-06T22:55:00;100650.0;;;-4.3;44.7
69707;BME280;56975;55.726;37.566;2024-03-06T23:00:00;100650.0;;;-4.4;45.0
69707;BME280;56975;55.726;37.566;2024-03-06T23:05:07;100640.0;;;-4.4;45.1
69707;BME280;56975;55.726;37.566;2024-03-06T23:10:00;100640.0;;;-4.5;45.0
69707;BME280;56975;55.726;37.566;2024-03-06T23:15:00;100640.0;;;-4.5;45.0
69707;BME280;56975;55.726;37.566;2024-03-06T23:20:08;100630.0;;;-4.5;45.0
69707;BME280;56975;55.726;37.566;2024-03-06T23:25:00;100630.0;;;-4.5;44.8
69707;BME280;56975;55.726;37.566;2024-03-06T23:30:00;100620.0;;;-4.5;44.5
69707;BME280;56975;55.726;37.566;2024-03-06T23:35:08;100620.0;;;-4.4;44.6
69707;BME280;56975;55.726;37.566;2024-03-06T23:40:04;100610.0;;;-4.4;44.3
69707;BME280;56975;55.726;37.566;2024-03-06T23:45:00;100610.0;;;-4.4;44.4
69707;BME280;56975;55.726;37.566;2024-03-06T23:50:08;100610.0;;;-4.3;44.8
69707;BME280;56975;55.726;37.566;2024-03-06T23:55:00;100610.0;;;-4.6;46.2
